sensor_id;sensor_type;location;lat;lon;timestamp;temperature;humidity
2873;DHT22;1444;49.166;7.312;2023-05-14T00:00:40;13.40;98.90
2873;DHT22;1444;49.166;7.312;2023-05-14T00:03:08;13.40;98.80
2873;DHT22;1444;49.166;7.312;2023-05-14T00:05:35;13.30;98.60
2873;DHT22;1444;49.166;7.312;2023-05-14T00:08:02;13.30;98.70
2873;DHT22;1444;49.166;7.312;2023-05-14T00:10:29;13.30;98.90
2873;DHT22;1444;49.166;7.312;2023-05-14T00:12:56;13.20;98.90
2873;DHT22;1444;49.166;7.312;2023-05-14T00:15:23;13.00;99.10
2873;DHT22;1444;49.166;7.312;2023-05-14T00:17:50;13.00;99.30
2873;DHT22;1444;49.166;7.312;2023-05-14T00:20:18;13.00;99.30
2873;DHT22;1444;49.166;7.312;2023-05-14T00:22:45;13.00;98.60
2873;DHT22;1444;49.166;7.312;2023-05-14T00:25:11;13.00;98.80
2873;DHT22;1444;49.166;7.312;2023-05-14T00:27:38;13.00;98.80
2873;DHT22;1444;49.166;7.312;2023-05-14T00:30:06;12.90;98.80
2873;DHT22;1444;49.166;7.312;2023-05-14T00:32:33;12.80;98.60
2873;DHT22;1444;49.166;7.312;2023-05-14T00:35:00;12.70;99.00
2873;DHT22;1444;49.166;7.312;2023-05-14T00:37:30;12.60;99.20
2873;DHT22;1444;49.166;7.312;2023-05-14T00:39:57;12.60;99.20
2873;DHT22;1444;49.166;7.312;2023-05-14T00:42:23;12.60;98.90
2873;DHT22;1444;49.166;7.312;2023-05-14T00:44:51;12.60;99.30
2873;DHT22;1444;49.166;7.312;2023-05-14T00:47:18;12.60;99.20
2873;DHT22;1444;49.166;7.312;2023-05-14T00:49:45;12.60;98.80
2873;DHT22;1444;49.166;7.312;2023-05-14T00:52:12;12.50;98.90
2873;DHT22;1444;49.166;7.312;2023-05-14T00:54:41;12.40;99.20
2873;DHT22;1444;49.166;7.312;2023-05-14T00:57:08;12.40;99.40
2873;DHT22;1444;49.166;7.312;2023-05-14T00:59:35;12.40;99.10
2873;DHT22;1444;49.166;7.312;2023-05-14T01:02:02;12.40;99.30
2873;DHT22;1444;49.166;7.312;2023-05-14T01:04:31;12.40;99.20
2873;DHT22;1444;49.166;7.312;2023-05-14T01:07:06;12.40;99.20
2873;DHT22;1444;49.166;7.312;2023-05-14T01:09:40;12.40;98.70
2873;DHT22;1444;49.166;7.312;2023-05-14T01:12:16;12.40;98.70
2873;DHT22;1444;49.166;7.312;2023-05-14T01:14:50;12.40;99.00
2873;DHT22;1444;49.166;7.312;2023-05-14T01:17:19;12.30;99.00
2873;DHT22;1444;49.166;7.312;2023-05-14T01:19:48;12.30;98.80
2873;DHT22;1444;49.166;7.312;2023-05-14T01:22:17;12.20;99.10
2873;DHT22;1444;49.166;7.312;2023-05-14T01:24:45;12.10;99.30
2873;DHT22;1444;49.166;7.312;2023-05-14T01:27:16;12.10;99.30
2873;DHT22;1444;49.166;7.312;2023-05-14T01:29:51;12.10;99.40
2873;DHT22;1444;49.166;7.312;2023-05-14T01:32:19;12.20;99.30
2873;DHT22;1444;49.166;7.312;2023-05-14T01:34:49;12.20;98.70
2873;DHT22;1444;49.166;7.312;2023-05-14T01:37:18;12.20;99.10
2873;DHT22;1444;49.166;7.312;2023-05-14T01:39:46;12.20;99.00
2873;DHT22;1444;49.166;7.312;2023-05-14T01:42:14;12.20;99.10
2873;DHT22;1444;49.166;7.312;2023-05-14T01:44:44;12.10;98.80
2873;DHT22;1444;49.166;7.312;2023-05-14T01:47:12;12.10;99.10
2873;DHT22;1444;49.166;7.312;2023-05-14T01:49:39;12.00;98.90
2873;DHT22;1444;49.166;7.312;2023-05-14T01:52:06;12.00;98.80
2873;DHT22;1444;49.166;7.312;2023-05-14T01:54:34;12.00;98.50
2873;DHT22;1444;49.166;7.312;2023-05-14T01:57:01;12.00;98.70
2873;DHT22;1444;49.166;7.312;2023-05-14T01:59:28;11.90;98.90
2873;DHT22;1444;49.166;7.312;2023-05-14T02:01:55;11.90;98.60
2873;DHT22;1444;49.166;7.312;2023-05-14T02:04:22;11.90;98.80
2873;DHT22;1444;49.166;7.312;2023-05-14T02:07:18;11.90;98.70
2873;DHT22;1444;49.166;7.312;2023-05-14T02:09:47;11.90;98.60
2873;DHT22;1444;49.166;7.312;2023-05-14T02:12:13;11.80;98.50
2873;DHT22;1444;49.166;7.312;2023-05-14T02:14:40;11.80;99.00
2873;DHT22;1444;49.166;7.312;2023-05-14T02:17:07;11.80;98.80
2873;DHT22;1444;49.166;7.312;2023-05-14T02:19:34;11.60;98.70
2873;DHT22;1444;49.166;7.312;2023-05-14T02:22:01;11.60;99.00
2873;DHT22;1444;49.166;7.312;2023-05-14T02:24:28;11.60;98.90
2873;DHT22;1444;49.166;7.312;2023-05-14T02:26:56;11.60;99.40
2873;DHT22;1444;49.166;7.312;2023-05-14T02:29:25;11.60;99.10
2873;DHT22;1444;49.166;7.312;2023-05-14T02:31:52;11.70;99.30
2873;DHT22;1444;49.166;7.312;2023-05-14T02:34:19;11.70;99.30
2873;DHT22;1444;49.166;7.312;2023-05-14T02:36:46;11.70;99.40
2873;DHT22;1444;49.166;7.312;2023-05-14T02:39:12;11.70;99.20
2873;DHT22;1444;49.166;7.312;2023-05-14T02:41:39;11.60;99.20
2873;DHT22;1444;49.166;7.312;2023-05-14T02:44:08;11.60;99.60
2873;DHT22;1444;49.166;7.312;2023-05-14T02:46:35;11.60;99.10
2873;DHT22;1444;49.166;7.312;2023-05-14T02:49:02;11.70;99.30
2873;DHT22;1444;49.166;7.312;2023-05-14T02:51:29;11.60;99.30
2873;DHT22;1444;49.166;7.312;2023-05-14T02:53:56;11.70;99.20
2873;DHT22;1444;49.166;7.312;2023-05-14T02:56:23;11.70;98.90
2873;DHT22;1444;49.166;7.312;2023-05-14T02:58:51;11.70;99.10
2873;DHT22;1444;49.166;7.312;2023-05-14T03:01:19;11.70;99.10
2873;DHT22;1444;49.166;7.312;2023-05-14T03:03:46;11.70;99.00
2873;DHT22;1444;49.166;7.312;2023-05-14T03:06:13;11.60;98.60
2873;DHT22;1444;49.166;7.312;2023-05-14T03:08:39;11.60;99.00
2873;DHT22;1444;49.166;7.312;2023-05-14T03:11:06;11.60;98.90
2873;DHT22;1444;49.166;7.312;2023-05-14T03:13:33;11.50;98.80
2873;DHT22;1444;49.166;7.312;2023-05-14T03:16:00;11.50;99.00
2873;DHT22;1444;49.166;7.312;2023-05-14T03:18:28;11.40;99.00
2873;DHT22;1444;49.166;7.312;2023-05-14T03:20:55;11.40;99.00
2873;DHT22;1444;49.166;7.312;2023-05-14T03:23:22;11.40;98.60
2873;DHT22;1444;49.166;7.312;2023-05-14T03:25:49;11.40;98.60
2873;DHT22;1444;49.166;7.312;2023-05-14T03:28:16;11.40;98.80
2873;DHT22;1444;49.166;7.312;2023-05-14T03:30:42;11.30;98.80
2873;DHT22;1444;49.166;7.312;2023-05-14T03:33:09;11.30;98.40
2873;DHT22;1444;49.166;7.312;2023-05-14T03:35:38;11.30;98.60
2873;DHT22;1444;49.166;7.312;2023-05-14T03:38:04;11.30;98.60
2873;DHT22;1444;49.166;7.312;2023-05-14T03:40:32;11.50;98.50
2873;DHT22;1444;49.166;7.312;2023-05-14T03:42:58;11.20;98.60
2873;DHT22;1444;49.166;7.312;2023-05-14T03:45:25;11.20;98.60
2873;DHT22;1444;49.166;7.312;2023-05-14T03:47:53;11.20;98.60
2873;DHT22;1444;49.166;7.312;2023-05-14T03:50:20;11.10;98.50
2873;DHT22;1444;49.166;7.312;2023-05-14T03:52:51;11.10;98.70
2873;DHT22;1444;49.166;7.312;2023-05-14T03:55:18;11.10;98.80
2873;DHT22;1444;49.166;7.312;2023-05-14T03:57:45;11.00;99.10
2873;DHT22;1444;49.166;7.312;2023-05-14T04:00:12;11.00;99.20
2873;DHT22;1444;49.166;7.312;2023-05-14T04:02:39;11.00;99.10
2873;DHT22;1444;49.166;7.312;2023-05-14T04:05:06;11.10;99.10
2873;DHT22;1444;49.166;7.312;2023-05-14T04:07:33;11.10;99.40
2873;DHT22;1444;49.166;7.312;2023-05-14T04:10:03;11.10;99.30
2873;DHT22;1444;49.166;7.312;2023-05-14T04:12:30;11.10;98.80
2873;DHT22;1444;49.166;7.312;2023-05-14T04:14:57;11.10;99.10
2873;DHT22;1444;49.166;7.312;2023-05-14T04:17:24;11.10;98.80
2873;DHT22;1444;49.166;7.312;2023-05-14T04:19:51;11.10;99.10
2873;DHT22;1444;49.166;7.312;2023-05-14T04:22:18;11.10;98.80
2873;DHT22;1444;49.166;7.312;2023-05-14T04:24:45;11.10;98.90
2873;DHT22;1444;49.166;7.312;2023-05-14T04:27:19;11.10;99.20
2873;DHT22;1444;49.166;7.312;2023-05-14T04:29:46;11.20;99.20
2873;DHT22;1444;49.166;7.312;2023-05-14T04:32:13;11.10;99.20
2873;DHT22;1444;49.166;7.312;2023-05-14T04:34:40;11.20;98.80
2873;DHT22;1444;49.166;7.312;2023-05-14T04:37:07;11.20;99.20
2873;DHT22;1444;49.166;7.312;2023-05-14T04:39:35;11.20;99.20
2873;DHT22;1444;49.166;7.312;2023-05-14T04:42:02;11.20;99.10
2873;DHT22;1444;49.166;7.312;2023-05-14T04:44:30;11.20;99.30
2873;DHT22;1444;49.166;7.312;2023-05-14T04:46:57;11.30;99.50
2873;DHT22;1444;49.166;7.312;2023-05-14T04:49:24;11.40;99.70
2873;DHT22;1444;49.166;7.312;2023-05-14T04:51:51;11.40;99.90
2873;DHT22;1444;49.166;7.312;2023-05-14T04:54:19;11.50;99.90
2873;DHT22;1444;49.166;7.312;2023-05-14T04:56:46;11.60;99.90
2873;DHT22;1444;49.166;7.312;2023-05-14T04:59:13;11.70;99.90
2873;DHT22;1444;49.166;7.312;2023-05-14T05:01:42;11.70;99.90
2873;DHT22;1444;49.166;7.312;2023-05-14T05:04:09;11.80;99.90
2873;DHT22;1444;49.166;7.312;2023-05-14T05:06:36;11.90;99.90
2873;DHT22;1444;49.166;7.312;2023-05-14T05:09:03;12.00;99.90
2873;DHT22;1444;49.166;7.312;2023-05-14T05:11:30;12.10;99.90
2873;DHT22;1444;49.166;7.312;2023-05-14T05:13:57;12.20;99.90
2873;DHT22;1444;49.166;7.312;2023-05-14T05:16:23;12.30;99.90
2873;DHT22;1444;49.166;7.312;2023-05-14T05:18:52;12.50;99.90
2873;DHT22;1444;49.166;7.312;2023-05-14T05:21:18;12.60;99.90
2873;DHT22;1444;49.166;7.312;2023-05-14T05:23:45;12.70;99.90
2873;DHT22;1444;49.166;7.312;2023-05-14T05:26:12;12.90;99.90
2873;DHT22;1444;49.166;7.312;2023-05-14T05:28:39;13.00;99.90
2873;DHT22;1444;49.166;7.312;2023-05-14T05:31:06;13.00;99.90
2873;DHT22;1444;49.166;7.312;2023-05-14T05:33:33;13.00;99.90
2873;DHT22;1444;49.166;7.312;2023-05-14T05:36:01;13.00;99.90
2873;DHT22;1444;49.166;7.312;2023-05-14T05:38:28;13.00;99.90
2873;DHT22;1444;49.166;7.312;2023-05-14T05:40:55;13.10;99.90
2873;DHT22;1444;49.166;7.312;2023-05-14T05:43:22;13.20;99.90
2873;DHT22;1444;49.166;7.312;2023-05-14T05:45:49;13.30;99.90
2873;DHT22;1444;49.166;7.312;2023-05-14T05:48:15;13.40;99.90
2873;DHT22;1444;49.166;7.312;2023-05-14T05:50:42;13.50;99.90
2873;DHT22;1444;49.166;7.312;2023-05-14T05:53:13;13.60;99.90
2873;DHT22;1444;49.166;7.312;2023-05-14T05:55:41;13.70;99.90
2873;DHT22;1444;49.166;7.312;2023-05-14T05:58:07;13.90;99.90
2873;DHT22;1444;49.166;7.312;2023-05-14T06:00:34;14.00;99.90
2873;DHT22;1444;49.166;7.312;2023-05-14T06:03:01;14.10;99.90
2873;DHT22;1444;49.166;7.312;2023-05-14T06:05:28;14.20;99.90
2873;DHT22;1444;49.166;7.312;2023-05-14T06:07:55;14.20;99.90
2873;DHT22;1444;49.166;7.312;2023-05-14T06:10:23;14.30;99.90
2873;DHT22;1444;49.166;7.312;2023-05-14T06:12:50;14.30;99.90
2873;DHT22;1444;49.166;7.312;2023-05-14T06:15:17;14.30;99.90
2873;DHT22;1444;49.166;7.312;2023-05-14T06:17:44;14.30;99.90
2873;DHT22;1444;49.166;7.312;2023-05-14T06:20:12;14.30;99.90
2873;DHT22;1444;49.166;7.312;2023-05-14T06:22:40;14.40;99.90
2873;DHT22;1444;49.166;7.312;2023-05-14T06:25:08;14.40;99.90
2873;DHT22;1444;49.166;7.312;2023-05-14T06:27:36;14.40;99.90
2873;DHT22;1444;49.166;7.312;2023-05-14T06:30:04;14.40;99.90
2873;DHT22;1444;49.166;7.312;2023-05-14T06:32:31;14.50;99.90
2873;DHT22;1444;49.166;7.312;2023-05-14T06:34:58;14.50;99.90
2873;DHT22;1444;49.166;7.312;2023-05-14T06:37:25;14.60;99.90
2873;DHT22;1444;49.166;7.312;2023-05-14T06:39:52;14.70;99.90
2873;DHT22;1444;49.166;7.312;2023-05-14T06:42:19;14.80;99.90
2873;DHT22;1444;49.166;7.312;2023-05-14T06:44:47;14.90;99.90
2873;DHT22;1444;49.166;7.312;2023-05-14T06:47:14;15.10;99.90
2873;DHT22;1444;49.166;7.312;2023-05-14T06:49:40;15.40;99.90
2873;DHT22;1444;49.166;7.312;2023-05-14T06:52:07;15.60;99.90
2873;DHT22;1444;49.166;7.312;2023-05-14T06:54:34;15.90;99.90
2873;DHT22;1444;49.166;7.312;2023-05-14T06:57:01;16.30;99.90
2873;DHT22;1444;49.166;7.312;2023-05-14T06:59:28;16.60;99.90
2873;DHT22;1444;49.166;7.312;2023-05-14T07:01:56;17.00;99.90
2873;DHT22;1444;49.166;7.312;2023-05-14T07:04:23;17.30;99.80
2873;DHT22;1444;49.166;7.312;2023-05-14T07:06:51;17.60;99.10
2873;DHT22;1444;49.166;7.312;2023-05-14T07:09:18;17.80;98.90
2873;DHT22;1444;49.166;7.312;2023-05-14T07:11:45;18.20;98.80
2873;DHT22;1444;49.166;7.312;2023-05-14T07:14:12;18.30;98.00
2873;DHT22;1444;49.166;7.312;2023-05-14T07:16:38;18.40;96.90
2873;DHT22;1444;49.166;7.312;2023-05-14T07:19:08;18.50;97.10
2873;DHT22;1444;49.166;7.312;2023-05-14T07:21:34;18.60;97.50
2873;DHT22;1444;49.166;7.312;2023-05-14T07:24:01;18.70;96.90
2873;DHT22;1444;49.166;7.312;2023-05-14T07:26:28;18.90;96.40
2873;DHT22;1444;49.166;7.312;2023-05-14T07:28:56;18.90;96.70
2873;DHT22;1444;49.166;7.312;2023-05-14T07:31:22;19.00;96.70
2873;DHT22;1444;49.166;7.312;2023-05-14T07:33:49;19.20;96.20
2873;DHT22;1444;49.166;7.312;2023-05-14T07:36:17;19.20;95.70
2873;DHT22;1444;49.166;7.312;2023-05-14T07:38:44;19.40;97.10
2873;DHT22;1444;49.166;7.312;2023-05-14T07:41:11;19.70;96.20
2873;DHT22;1444;49.166;7.312;2023-05-14T07:43:38;19.90;96.00
2873;DHT22;1444;49.166;7.312;2023-05-14T07:46:05;20.00;96.60
2873;DHT22;1444;49.166;7.312;2023-05-14T07:48:32;20.20;95.50
2873;DHT22;1444;49.166;7.312;2023-05-14T07:50:59;20.50;95.60
2873;DHT22;1444;49.166;7.312;2023-05-14T07:53:27;20.50;95.40
2873;DHT22;1444;49.166;7.312;2023-05-14T07:55:54;20.80;95.60
2873;DHT22;1444;49.166;7.312;2023-05-14T07:58:21;21.00;94.80
2873;DHT22;1444;49.166;7.312;2023-05-14T08:00:49;21.20;94.90
2873;DHT22;1444;49.166;7.312;2023-05-14T08:03:16;21.50;94.30
2873;DHT22;1444;49.166;7.312;2023-05-14T08:05:43;21.50;94.60
2873;DHT22;1444;49.166;7.312;2023-05-14T08:08:10;21.70;93.50
2873;DHT22;1444;49.166;7.312;2023-05-14T08:10:39;21.90;94.30
2873;DHT22;1444;49.166;7.312;2023-05-14T08:13:05;21.90;94.10
2873;DHT22;1444;49.166;7.312;2023-05-14T08:15:32;21.90;92.50
2873;DHT22;1444;49.166;7.312;2023-05-14T08:17:59;21.90;92.40
2873;DHT22;1444;49.166;7.312;2023-05-14T08:20:28;21.90;91.90
2873;DHT22;1444;49.166;7.312;2023-05-14T08:22:55;21.90;92.30
2873;DHT22;1444;49.166;7.312;2023-05-14T08:25:22;22.10;92.00
2873;DHT22;1444;49.166;7.312;2023-05-14T08:27:50;22.10;92.70
2873;DHT22;1444;49.166;7.312;2023-05-14T08:30:18;22.00;91.40
2873;DHT22;1444;49.166;7.312;2023-05-14T08:32:45;22.20;92.50
2873;DHT22;1444;49.166;7.312;2023-05-14T08:35:12;22.20;91.50
2873;DHT22;1444;49.166;7.312;2023-05-14T08:37:39;22.10;91.20
2873;DHT22;1444;49.166;7.312;2023-05-14T08:40:07;22.20;91.20
2873;DHT22;1444;49.166;7.312;2023-05-14T08:42:36;22.20;91.50
2873;DHT22;1444;49.166;7.312;2023-05-14T08:45:10;22.30;92.00
2873;DHT22;1444;49.166;7.312;2023-05-14T08:47:39;22.30;91.80
2873;DHT22;1444;49.166;7.312;2023-05-14T08:50:07;22.40;91.40
2873;DHT22;1444;49.166;7.312;2023-05-14T08:52:34;22.50;91.70
2873;DHT22;1444;49.166;7.312;2023-05-14T08:55:03;22.60;90.80
2873;DHT22;1444;49.166;7.312;2023-05-14T08:57:31;22.70;90.30
2873;DHT22;1444;49.166;7.312;2023-05-14T08:59:59;22.80;91.30
2873;DHT22;1444;49.166;7.312;2023-05-14T09:02:29;22.90;90.60
2873;DHT22;1444;49.166;7.312;2023-05-14T09:04:57;22.70;90.40
2873;DHT22;1444;49.166;7.312;2023-05-14T09:07:25;22.70;90.40
2873;DHT22;1444;49.166;7.312;2023-05-14T09:09:52;22.70;90.70
2873;DHT22;1444;49.166;7.312;2023-05-14T09:12:20;22.90;91.30
2873;DHT22;1444;49.166;7.312;2023-05-14T09:14:48;22.90;90.50
2873;DHT22;1444;49.166;7.312;2023-05-14T09:17:16;22.90;90.50
2873;DHT22;1444;49.166;7.312;2023-05-14T09:19:45;22.70;89.70
2873;DHT22;1444;49.166;7.312;2023-05-14T09:22:15;22.50;89.70
2873;DHT22;1444;49.166;7.312;2023-05-14T09:24:42;22.30;90.20
2873;DHT22;1444;49.166;7.312;2023-05-14T09:27:14;22.30;91.40
2873;DHT22;1444;49.166;7.312;2023-05-14T09:29:43;22.80;90.90
2873;DHT22;1444;49.166;7.312;2023-05-14T09:32:10;22.80;90.40
2873;DHT22;1444;49.166;7.312;2023-05-14T09:34:37;22.90;89.00
2873;DHT22;1444;49.166;7.312;2023-05-14T09:37:07;23.00;90.40
2873;DHT22;1444;49.166;7.312;2023-05-14T09:39:37;23.20;90.50
2873;DHT22;1444;49.166;7.312;2023-05-14T09:42:04;23.30;91.20
2873;DHT22;1444;49.166;7.312;2023-05-14T09:44:31;23.60;90.50
2873;DHT22;1444;49.166;7.312;2023-05-14T09:47:00;23.50;85.90
2873;DHT22;1444;49.166;7.312;2023-05-14T09:49:28;23.50;86.40
2873;DHT22;1444;49.166;7.312;2023-05-14T09:51:55;23.20;87.30
2873;DHT22;1444;49.166;7.312;2023-05-14T09:54:25;23.00;86.30
2873;DHT22;1444;49.166;7.312;2023-05-14T09:56:52;22.70;89.10
2873;DHT22;1444;49.166;7.312;2023-05-14T09:59:18;22.50;90.00
2873;DHT22;1444;49.166;7.312;2023-05-14T10:01:46;22.40;89.90
2873;DHT22;1444;49.166;7.312;2023-05-14T10:04:13;22.20;88.90
2873;DHT22;1444;49.166;7.312;2023-05-14T10:06:41;21.90;88.00
2873;DHT22;1444;49.166;7.312;2023-05-14T10:09:12;21.70;90.00
2873;DHT22;1444;49.166;7.312;2023-05-14T10:11:42;21.60;89.00
2873;DHT22;1444;49.166;7.312;2023-05-14T10:14:13;21.50;90.00
2873;DHT22;1444;49.166;7.312;2023-05-14T10:16:46;21.50;88.60
2873;DHT22;1444;49.166;7.312;2023-05-14T10:19:15;21.80;90.90
2873;DHT22;1444;49.166;7.312;2023-05-14T10:21:44;22.20;90.20
2873;DHT22;1444;49.166;7.312;2023-05-14T10:24:13;22.40;88.60
2873;DHT22;1444;49.166;7.312;2023-05-14T10:26:42;22.60;88.60
2873;DHT22;1444;49.166;7.312;2023-05-14T10:29:09;22.30;84.80
2873;DHT22;1444;49.166;7.312;2023-05-14T10:31:47;22.30;86.40
2873;DHT22;1444;49.166;7.312;2023-05-14T10:34:31;22.60;86.60
2873;DHT22;1444;49.166;7.312;2023-05-14T10:37:00;22.80;90.00
2873;DHT22;1444;49.166;7.312;2023-05-14T10:39:40;23.20;86.50
2873;DHT22;1444;49.166;7.312;2023-05-14T10:42:10;22.90;85.20
2873;DHT22;1444;49.166;7.312;2023-05-14T10:44:47;23.10;84.90
2873;DHT22;1444;49.166;7.312;2023-05-14T10:47:14;22.90;84.30
2873;DHT22;1444;49.166;7.312;2023-05-14T10:49:43;22.90;88.10
2873;DHT22;1444;49.166;7.312;2023-05-14T10:52:15;23.10;88.80
2873;DHT22;1444;49.166;7.312;2023-05-14T10:54:47;23.30;88.70
2873;DHT22;1444;49.166;7.312;2023-05-14T10:57:16;23.50;87.10
2873;DHT22;1444;49.166;7.312;2023-05-14T10:59:45;23.70;85.80
2873;DHT22;1444;49.166;7.312;2023-05-14T11:02:20;23.80;86.90
2873;DHT22;1444;49.166;7.312;2023-05-14T11:04:55;24.00;86.40
2873;DHT22;1444;49.166;7.312;2023-05-14T11:07:25;23.80;82.90
2873;DHT22;1444;49.166;7.312;2023-05-14T11:09:54;24.00;85.00
2873;DHT22;1444;49.166;7.312;2023-05-14T11:12:25;23.90;85.10
2873;DHT22;1444;49.166;7.312;2023-05-14T11:14:52;23.70;84.20
2873;DHT22;1444;49.166;7.312;2023-05-14T11:17:19;23.70;84.80
2873;DHT22;1444;49.166;7.312;2023-05-14T11:19:46;23.70;87.10
2873;DHT22;1444;49.166;7.312;2023-05-14T11:22:13;23.40;83.60
2873;DHT22;1444;49.166;7.312;2023-05-14T11:24:40;23.10;84.00
2873;DHT22;1444;49.166;7.312;2023-05-14T11:27:07;22.90;85.10
2873;DHT22;1444;49.166;7.312;2023-05-14T11:29:36;22.60;84.90
2873;DHT22;1444;49.166;7.312;2023-05-14T11:32:04;22.40;85.70
2873;DHT22;1444;49.166;7.312;2023-05-14T11:34:31;22.30;85.80
2873;DHT22;1444;49.166;7.312;2023-05-14T11:37:02;22.30;85.80
2873;DHT22;1444;49.166;7.312;2023-05-14T11:39:29;22.30;86.20
2873;DHT22;1444;49.166;7.312;2023-05-14T11:41:57;22.30;87.20
2873;DHT22;1444;49.166;7.312;2023-05-14T11:44:24;22.30;84.70
2873;DHT22;1444;49.166;7.312;2023-05-14T11:46:56;22.20;85.30
2873;DHT22;1444;49.166;7.312;2023-05-14T11:49:24;22.30;85.80
2873;DHT22;1444;49.166;7.312;2023-05-14T11:51:56;22.20;85.10
2873;DHT22;1444;49.166;7.312;2023-05-14T11:54:25;22.10;84.80
2873;DHT22;1444;49.166;7.312;2023-05-14T11:56:52;22.40;85.40
2873;DHT22;1444;49.166;7.312;2023-05-14T11:59:20;22.40;84.00
2873;DHT22;1444;49.166;7.312;2023-05-14T12:01:47;22.60;86.60
2873;DHT22;1444;49.166;7.312;2023-05-14T12:04:17;22.70;85.50
2873;DHT22;1444;49.166;7.312;2023-05-14T12:06:47;22.70;86.40
2873;DHT22;1444;49.166;7.312;2023-05-14T12:09:15;22.80;87.10
2873;DHT22;1444;49.166;7.312;2023-05-14T12:11:42;23.10;86.30
2873;DHT22;1444;49.166;7.312;2023-05-14T12:14:14;23.10;83.60
2873;DHT22;1444;49.166;7.312;2023-05-14T12:16:43;23.40;87.20
2873;DHT22;1444;49.166;7.312;2023-05-14T12:19:12;23.50;83.90
2873;DHT22;1444;49.166;7.312;2023-05-14T12:21:42;23.60;85.90
2873;DHT22;1444;49.166;7.312;2023-05-14T12:24:09;23.50;85.50
2873;DHT22;1444;49.166;7.312;2023-05-14T12:26:37;23.60;85.10
2873;DHT22;1444;49.166;7.312;2023-05-14T12:29:04;23.60;86.00
2873;DHT22;1444;49.166;7.312;2023-05-14T12:31:33;23.70;82.10
2873;DHT22;1444;49.166;7.312;2023-05-14T12:34:01;23.70;85.00
2873;DHT22;1444;49.166;7.312;2023-05-14T12:36:28;23.70;83.30
2873;DHT22;1444;49.166;7.312;2023-05-14T12:38:59;23.70;84.70
2873;DHT22;1444;49.166;7.312;2023-05-14T12:41:28;23.70;85.60
2873;DHT22;1444;49.166;7.312;2023-05-14T12:43:55;23.70;86.10
2873;DHT22;1444;49.166;7.312;2023-05-14T12:46:25;23.70;84.90
2873;DHT22;1444;49.166;7.312;2023-05-14T12:49:20;23.90;84.60
2873;DHT22;1444;49.166;7.312;2023-05-14T12:51:47;24.00;86.00
2873;DHT22;1444;49.166;7.312;2023-05-14T12:54:15;23.90;82.50
2873;DHT22;1444;49.166;7.312;2023-05-14T12:56:42;23.50;83.00
2873;DHT22;1444;49.166;7.312;2023-05-14T12:59:09;23.50;82.80
2873;DHT22;1444;49.166;7.312;2023-05-14T13:01:36;23.10;82.50
2873;DHT22;1444;49.166;7.312;2023-05-14T13:04:03;23.00;83.40
2873;DHT22;1444;49.166;7.312;2023-05-14T13:06:30;23.00;85.40
2873;DHT22;1444;49.166;7.312;2023-05-14T13:08:58;23.20;87.50
2873;DHT22;1444;49.166;7.312;2023-05-14T13:11:28;23.30;86.50
2873;DHT22;1444;49.166;7.312;2023-05-14T13:13:56;23.40;85.10
2873;DHT22;1444;49.166;7.312;2023-05-14T13:16:24;23.30;82.10
2873;DHT22;1444;49.166;7.312;2023-05-14T13:18:51;23.20;82.80
2873;DHT22;1444;49.166;7.312;2023-05-14T13:21:17;23.20;80.60
2873;DHT22;1444;49.166;7.312;2023-05-14T13:23:45;23.10;82.90
2873;DHT22;1444;49.166;7.312;2023-05-14T13:26:12;23.00;81.90
2873;DHT22;1444;49.166;7.312;2023-05-14T13:28:41;23.00;83.60
2873;DHT22;1444;49.166;7.312;2023-05-14T13:31:10;23.10;83.30
2873;DHT22;1444;49.166;7.312;2023-05-14T13:33:39;23.20;84.10
2873;DHT22;1444;49.166;7.312;2023-05-14T13:36:07;23.30;83.30
2873;DHT22;1444;49.166;7.312;2023-05-14T13:38:34;23.20;84.20
2873;DHT22;1444;49.166;7.312;2023-05-14T13:41:01;23.10;83.30
2873;DHT22;1444;49.166;7.312;2023-05-14T13:43:29;23.30;84.30
2873;DHT22;1444;49.166;7.312;2023-05-14T13:45:57;23.50;84.20
2873;DHT22;1444;49.166;7.312;2023-05-14T13:48:25;23.70;86.40
2873;DHT22;1444;49.166;7.312;2023-05-14T13:50:53;23.60;81.80
2873;DHT22;1444;49.166;7.312;2023-05-14T13:53:22;23.60;82.90
2873;DHT22;1444;49.166;7.312;2023-05-14T13:55:49;23.70;83.40
2873;DHT22;1444;49.166;7.312;2023-05-14T13:58:21;23.70;83.70
2873;DHT22;1444;49.166;7.312;2023-05-14T14:00:47;23.90;80.00
2873;DHT22;1444;49.166;7.312;2023-05-14T14:03:16;23.90;79.70
2873;DHT22;1444;49.166;7.312;2023-05-14T14:05:43;23.90;81.70
2873;DHT22;1444;49.166;7.312;2023-05-14T14:08:09;24.10;79.90
2873;DHT22;1444;49.166;7.312;2023-05-14T14:10:37;24.10;81.90
2873;DHT22;1444;49.166;7.312;2023-05-14T14:13:05;24.10;81.50
2873;DHT22;1444;49.166;7.312;2023-05-14T14:15:32;24.20;80.50
2873;DHT22;1444;49.166;7.312;2023-05-14T14:17:59;24.20;80.00
2873;DHT22;1444;49.166;7.312;2023-05-14T14:20:27;24.20;79.70
2873;DHT22;1444;49.166;7.312;2023-05-14T14:22:55;24.30;81.30
2873;DHT22;1444;49.166;7.312;2023-05-14T14:25:22;24.40;77.80
2873;DHT22;1444;49.166;7.312;2023-05-14T14:27:49;24.20;79.00
2873;DHT22;1444;49.166;7.312;2023-05-14T14:30:16;24.10;79.20
2873;DHT22;1444;49.166;7.312;2023-05-14T14:32:43;24.00;81.00
2873;DHT22;1444;49.166;7.312;2023-05-14T14:35:12;23.90;79.80
2873;DHT22;1444;49.166;7.312;2023-05-14T14:37:41;23.50;78.10
2873;DHT22;1444;49.166;7.312;2023-05-14T14:40:10;23.20;79.00
2873;DHT22;1444;49.166;7.312;2023-05-14T14:42:37;22.90;79.80
2873;DHT22;1444;49.166;7.312;2023-05-14T14:45:05;22.80;80.30
2873;DHT22;1444;49.166;7.312;2023-05-14T14:47:32;22.80;81.90
2873;DHT22;1444;49.166;7.312;2023-05-14T14:49:59;22.80;81.10
2873;DHT22;1444;49.166;7.312;2023-05-14T14:52:26;22.80;81.80
2873;DHT22;1444;49.166;7.312;2023-05-14T14:54:55;23.10;81.60
2873;DHT22;1444;49.166;7.312;2023-05-14T14:57:22;23.20;82.70
2873;DHT22;1444;49.166;7.312;2023-05-14T14:59:48;23.50;81.10
2873;DHT22;1444;49.166;7.312;2023-05-14T15:02:15;23.70;80.10
2873;DHT22;1444;49.166;7.312;2023-05-14T15:04:42;23.90;75.80
2873;DHT22;1444;49.166;7.312;2023-05-14T15:07:09;24.00;77.80
2873;DHT22;1444;49.166;7.312;2023-05-14T15:09:36;24.00;76.80
2873;DHT22;1444;49.166;7.312;2023-05-14T15:12:05;24.00;77.40
2873;DHT22;1444;49.166;7.312;2023-05-14T15:14:33;24.10;77.40
2873;DHT22;1444;49.166;7.312;2023-05-14T15:17:00;24.10;77.50
2873;DHT22;1444;49.166;7.312;2023-05-14T15:19:28;24.00;78.90
2873;DHT22;1444;49.166;7.312;2023-05-14T15:21:55;23.90;79.20
2873;DHT22;1444;49.166;7.312;2023-05-14T15:24:22;24.00;82.30
2873;DHT22;1444;49.166;7.312;2023-05-14T15:26:50;23.90;79.60
2873;DHT22;1444;49.166;7.312;2023-05-14T15:29:18;23.90;79.50
2873;DHT22;1444;49.166;7.312;2023-05-14T15:31:45;23.00;79.80
2873;DHT22;1444;49.166;7.312;2023-05-14T15:34:12;23.80;81.10
2873;DHT22;1444;49.166;7.312;2023-05-14T15:36:39;23.90;79.30
2873;DHT22;1444;49.166;7.312;2023-05-14T15:39:06;23.90;78.40
2873;DHT22;1444;49.166;7.312;2023-05-14T15:41:34;24.00;80.60
2873;DHT22;1444;49.166;7.312;2023-05-14T15:44:01;23.90;79.60
2873;DHT22;1444;49.166;7.312;2023-05-14T15:46:29;24.00;81.90
2873;DHT22;1444;49.166;7.312;2023-05-14T15:48:56;24.00;80.60
2873;DHT22;1444;49.166;7.312;2023-05-14T15:51:23;23.90;76.90
2873;DHT22;1444;49.166;7.312;2023-05-14T15:53:51;24.00;79.80
2873;DHT22;1444;49.166;7.312;2023-05-14T15:56:19;24.00;78.70
2873;DHT22;1444;49.166;7.312;2023-05-14T15:58:46;24.00;79.50
2873;DHT22;1444;49.166;7.312;2023-05-14T16:01:13;24.00;80.70
2873;DHT22;1444;49.166;7.312;2023-05-14T16:03:41;24.10;79.20
2873;DHT22;1444;49.166;7.312;2023-05-14T16:06:08;24.10;79.30